createdAt,value
2019-05-11T00:01:15.973Z,100882.31
2019-05-11T00:06:49.594Z,100881.73
2019-05-11T00:09:58.751Z,100876.37
2019-05-11T00:12:30.089Z,100877.52
2019-05-11T00:14:59.486Z,100885.41
2019-05-11T00:17:28.955Z,100881.19
2019-05-11T00:20:02.273Z,100886.75
2019-05-11T00:22:32.509Z,100893.13
2019-05-11T00:25:02.326Z,100897.44
2019-05-11T00:28:11.119Z,100899.77
2019-05-11T00:33:55.644Z,100897.61
2019-05-11T00:36:25.140Z,100907.81
2019-05-11T00:38:54.554Z,100906.77
2019-05-11T00:41:24.518Z,100904.34
2019-05-11T00:43:53.869Z,100904.34
2019-05-11T00:46:23.276Z,100896.45
2019-05-11T00:51:27.796Z,100897.69
2019-05-11T00:53:58.021Z,100890.91
2019-05-11T00:57:06.753Z,100891.75
2019-05-11T01:02:31.923Z,100889.36
2019-05-11T01:05:01.441Z,100890.45
2019-05-11T01:13:21.414Z,100884.85
2019-05-11T01:16:30.944Z,100884.30
2019-05-11T01:19:00.563Z,100888.09
2019-05-11T01:21:30.125Z,100890.59
2019-05-11T01:23:59.645Z,100889.06
2019-05-11T01:26:48.705Z,100891.03
2019-05-11T01:29:18.216Z,100890.86
2019-05-11T01:31:48.069Z,100881.56
2019-05-11T01:34:17.638Z,100880.64
2019-05-11T01:36:47.081Z,100880.52
2019-05-11T01:39:16.700Z,100867.48
2019-05-11T01:42:28.095Z,100870.28
2019-05-11T01:45:17.557Z,100874.42
2019-05-11T01:50:42.677Z,100879.95
2019-05-11T01:58:56.868Z,100891.56
2019-05-11T02:01:26.845Z,100889.09
2019-05-11T02:03:56.397Z,100895.31
2019-05-11T02:06:25.891Z,100892.32
2019-05-11T02:11:51.846Z,100902.50
2019-05-11T02:20:26.287Z,100912.22
2019-05-11T02:25:58.918Z,100914.66
2019-05-11T02:28:28.319Z,100919.45
2019-05-11T02:30:57.827Z,100913.81
2019-05-11T02:33:27.956Z,100911.09
2019-05-11T02:35:57.454Z,100914.88
2019-05-11T02:38:27.376Z,100916.44
2019-05-11T02:40:56.958Z,100925.48
2019-05-11T02:43:28.031Z,100930.12
2019-05-11T02:46:36.930Z,100931.63
2019-05-11T02:52:24.406Z,100941.26
2019-05-11T02:55:33.756Z,100941.83
2019-05-11T03:00:59.385Z,100954.17
2019-05-11T03:06:23.383Z,100956.26
2019-05-11T03:08:53.188Z,100962.84
2019-05-11T03:14:11.766Z,100963.03
2019-05-11T03:16:41.780Z,100957.77
2019-05-11T03:19:11.192Z,100956.72
2019-05-11T03:21:41.314Z,100960.48
2019-05-11T03:24:11.739Z,100967.45
2019-05-11T03:26:41.761Z,100966.48
2019-05-11T03:29:11.282Z,100973.80
2019-05-11T03:32:20.485Z,100976.28
2019-05-11T03:38:17.726Z,100992.27
2019-05-11T03:43:42.353Z,100986.05
2019-05-11T03:46:52.318Z,100991.52
2019-05-11T03:49:22.726Z,100993.42
2019-05-11T03:51:53.611Z,101003.56
2019-05-11T03:54:23.240Z,101012.81
2019-05-11T03:56:52.849Z,101010.64
2019-05-11T03:59:22.398Z,101018.14
2019-05-11T04:01:51.880Z,101017.59
2019-05-11T04:04:21.368Z,101025.61
2019-05-11T04:09:26.370Z,101031.72
2019-05-11T04:12:35.927Z,101030.79
2019-05-11T04:18:03.084Z,101041.38
2019-05-11T04:23:33.470Z,101041.10
2019-05-11T04:29:17.354Z,101047.71
2019-05-11T04:31:47.224Z,101043.31
2019-05-11T04:34:16.596Z,101042.30
2019-05-11T04:39:34.823Z,101042.08
2019-05-11T04:42:04.593Z,101040.84
2019-05-11T04:44:35.185Z,101048.50
2019-05-11T04:47:04.890Z,101056.48
2019-05-11T04:49:35.453Z,101051.13
2019-05-11T04:52:05.925Z,101055.58
2019-05-11T04:54:36.023Z,101052.75
2019-05-11T04:57:06.162Z,101058.05
2019-05-11T04:59:35.602Z,101060.02
2019-05-11T05:02:05.533Z,101060.11
2019-05-11T05:04:35.595Z,101055.89
2019-05-11T05:07:05.545Z,101059.27
2019-05-11T05:09:42.987Z,101063.90
2019-05-11T05:12:13.642Z,101068.34
2019-05-11T05:17:41.808Z,101067.30
2019-05-11T05:23:15.641Z,101072.48
2019-05-11T05:26:24.275Z,101071.92
2019-05-11T05:31:49.478Z,101073.74
2019-05-11T05:34:58.253Z,101071.71
2019-05-11T05:38:07.721Z,101073.95
2019-05-11T05:40:37.519Z,101069.52
2019-05-11T05:46:03.287Z,101068.02
2019-05-11T05:48:32.695Z,101063.42
2019-05-11T05:51:02.461Z,101057.30
2019-05-11T05:53:32.339Z,100964.38
2019-05-11T05:56:01.988Z,101071.73
2019-05-11T06:01:23.650Z,101070.13
2019-05-11T06:04:12.294Z,101066.66
2019-05-11T06:06:42.325Z,101073.70
2019-05-11T06:09:11.786Z,101081.13
2019-05-11T06:11:41.143Z,101083.53
2019-05-11T06:14:10.571Z,101085.97
2019-05-11T06:16:40.006Z,101089.30
2019-05-11T06:19:10.218Z,101083.81
2019-05-11T06:21:39.903Z,101085.52
2019-05-11T06:24:10.279Z,101093.27
2019-05-11T06:29:37.132Z,101095.15
2019-05-11T06:38:11.048Z,101095.98
2019-05-11T06:40:40.455Z,101105.13
2019-05-11T06:43:09.836Z,101118.48
2019-05-11T06:45:51.034Z,101118.25
2019-05-11T06:48:21.055Z,101114.00
2019-05-11T06:51:30.106Z,101112.39
2019-05-11T06:56:55.816Z,101104.59
2019-05-11T06:59:25.346Z,101107.30
2019-05-11T07:01:55.188Z,101099.26
2019-05-11T07:04:24.970Z,101107.95
2019-05-11T07:06:54.395Z,101108.73
2019-05-11T07:09:23.920Z,101108.06
2019-05-11T07:11:53.535Z,101112.00
2019-05-11T07:14:23.138Z,101111.94
2019-05-11T07:19:51.648Z,101117.27
2019-05-11T07:22:21.102Z,101125.89
2019-05-11T07:27:46.695Z,101133.09
2019-05-11T07:30:17.664Z,101135.17
2019-05-11T07:32:48.158Z,101143.77
2019-05-11T07:35:18.778Z,101148.05
2019-05-11T07:37:48.560Z,101149.62
2019-05-11T07:40:19.881Z,101157.30
2019-05-11T07:42:49.418Z,101165.59
2019-05-11T07:48:28.395Z,101166.81
2019-05-11T07:50:59.622Z,101169.48
2019-05-11T07:53:29.456Z,101169.66
2019-05-11T07:58:34.433Z,101171.66
2019-05-11T08:03:43.310Z,101169.50
2019-05-11T08:08:54.754Z,101168.48
2019-05-11T08:11:28.090Z,101183.92
2019-05-11T08:17:22.251Z,101183.02
2019-05-11T08:19:51.738Z,101181.70
2019-05-11T08:23:00.903Z,101186.92
2019-05-11T08:28:28.617Z,101186.95
2019-05-11T08:30:58.047Z,101188.83
2019-05-11T08:33:28.405Z,101185.95
2019-05-11T08:35:58.444Z,101191.09
2019-05-11T08:38:30.858Z,101180.50
2019-05-11T08:41:00.361Z,101185.41
2019-05-11T08:43:29.761Z,101181.56
2019-05-11T08:45:59.435Z,101182.89
2019-05-11T08:48:28.868Z,101186.40
2019-05-11T08:50:58.411Z,101184.76
2019-05-11T08:53:28.503Z,101192.89
2019-05-11T08:58:39.671Z,101202.70
2019-05-11T09:01:09.133Z,101204.52
2019-05-11T09:03:58.476Z,101204.08
2019-05-11T09:06:28.510Z,101204.28
2019-05-11T09:08:58.430Z,101204.05
2019-05-11T09:11:28.524Z,101198.27
2019-05-11T09:13:58.320Z,101198.70
2019-05-11T09:19:42.711Z,101192.69
2019-05-11T09:22:12.184Z,101195.49
2019-05-11T09:24:41.689Z,101205.83
2019-05-11T09:27:11.097Z,101211.29
2019-05-11T09:29:40.703Z,101216.37
2019-05-11T09:32:10.107Z,101218.66
2019-05-11T09:34:39.654Z,101222.65
2019-05-11T09:37:09.418Z,101222.66
2019-05-11T09:39:38.867Z,101218.22
2019-05-11T09:44:44.088Z,101214.31
2019-05-11T09:47:13.669Z,101234.03
2019-05-11T09:52:45.281Z,101233.38
2019-05-11T09:55:54.136Z,101230.27
2019-05-11T09:58:35.881Z,101229.92
2019-05-11T10:04:09.006Z,101226.98
2019-05-11T10:09:29.605Z,101229.30
2019-05-11T10:11:59.225Z,101235.34
2019-05-11T10:14:29.000Z,101234.94
2019-05-11T10:19:54.968Z,101232.20
2019-05-11T10:25:51.107Z,101239.78
2019-05-11T10:31:22.261Z,101238.09
2019-05-11T10:33:51.877Z,101235.11
2019-05-11T10:36:21.493Z,101234.75
2019-05-11T10:41:47.963Z,101237.63
2019-05-11T10:44:18.927Z,101243.27
2019-05-11T10:46:49.986Z,101245.29
2019-05-11T10:49:20.313Z,101249.77
2019-05-11T10:51:49.881Z,101248.95
2019-05-11T10:54:19.756Z,101255.79
2019-05-11T10:56:49.212Z,101248.43
2019-05-11T10:59:19.173Z,101237.70
2019-05-11T11:05:03.135Z,101230.55
2019-05-11T11:07:32.581Z,101235.45
2019-05-11T11:10:01.975Z,101243.88
2019-05-11T11:12:31.508Z,101238.95
2019-05-11T11:15:01.345Z,101234.39
2019-05-11T11:17:30.852Z,101227.90
2019-05-11T11:20:21.506Z,101218.20
2019-05-11T11:22:51.316Z,101225.25
2019-05-11T11:25:20.953Z,101222.97
2019-05-11T11:28:29.704Z,101225.23
2019-05-11T11:30:59.393Z,101228.27
2019-05-11T11:33:28.990Z,101227.59
2019-05-11T11:35:58.877Z,101227.80
2019-05-11T11:38:29.174Z,101228.56
2019-05-11T11:41:38.090Z,101224.42
2019-05-11T11:44:28.525Z,101227.09
2019-05-11T11:53:18.605Z,101224.11
2019-05-11T11:55:48.186Z,101220.91
2019-05-11T11:58:23.753Z,101226.39
2019-05-11T12:00:51.858Z,101239.40
2019-05-11T12:03:21.230Z,101236.19
2019-05-11T12:05:50.664Z,101235.73
2019-05-11T12:08:20.035Z,101231.47
2019-05-11T12:10:49.989Z,101229.34
2019-05-11T12:13:19.577Z,101222.27
2019-05-11T12:15:48.969Z,101222.45
2019-05-11T12:18:18.599Z,101227.46
2019-05-11T12:20:48.178Z,101236.23
2019-05-11T12:26:28.187Z,101232.12
2019-05-11T12:28:59.088Z,101240.14
2019-05-11T12:32:08.255Z,101241.44
2019-05-11T12:34:38.987Z,101234.82
2019-05-11T12:37:08.571Z,101244.05
2019-05-11T12:39:40.001Z,101247.33
2019-05-11T12:47:59.698Z,101253.33
2019-05-11T12:50:29.931Z,101245.89
2019-05-11T13:02:12.004Z,101251.84
2019-05-11T13:07:39.178Z,101249.66
2019-05-11T13:10:08.732Z,101252.77
2019-05-11T13:12:38.733Z,101250.40
2019-05-11T13:15:28.171Z,101246.73
2019-05-11T13:21:00.254Z,101248.55
2019-05-11T13:24:09.093Z,101257.22
2019-05-11T13:26:38.676Z,101255.95
2019-05-11T13:29:28.631Z,101256.25
2019-05-11T13:31:59.695Z,101257.89
2019-05-11T13:34:31.539Z,101263.69
2019-05-11T13:37:39.995Z,101267.61
2019-05-11T13:46:08.776Z,101269.62
2019-05-11T13:51:40.932Z,101273.08
2019-05-11T13:54:10.868Z,101268.66
2019-05-11T13:56:40.315Z,101265.06
2019-05-11T14:02:11.264Z,101265.62
2019-05-11T14:07:37.954Z,101271.42
2019-05-11T14:13:30.911Z,101257.56
2019-05-11T14:18:40.114Z,101259.10
2019-05-11T14:21:09.508Z,101269.34
2019-05-11T14:23:39.012Z,101262.58
2019-05-11T14:26:08.843Z,101262.62
2019-05-11T14:28:38.989Z,101276.05
2019-05-11T14:31:08.521Z,101278.09
2019-05-11T14:33:38.694Z,101277.66
2019-05-11T14:36:08.764Z,101275.41
2019-05-11T14:38:38.323Z,101271.56
2019-05-11T14:41:08.547Z,101276.12
2019-05-11T14:43:38.480Z,101277.92
2019-05-11T14:46:08.659Z,101283.90
2019-05-11T14:48:39.184Z,101286.09
2019-05-11T14:51:10.112Z,101275.34
2019-05-11T14:53:39.601Z,101280.14
2019-05-11T14:56:09.339Z,101281.93
2019-05-11T15:01:53.741Z,101276.08
2019-05-11T15:04:23.089Z,101286.97
2019-05-11T15:06:52.575Z,101288.91
2019-05-11T15:09:22.521Z,101292.29
2019-05-11T15:11:52.657Z,101301.94
2019-05-11T15:14:22.355Z,101293.47
2019-05-11T15:16:51.753Z,101287.97
2019-05-11T15:19:21.207Z,101288.37
2019-05-11T15:21:50.839Z,101292.75
2019-05-11T15:24:20.428Z,101292.45
2019-05-11T15:26:49.839Z,101301.53
2019-05-11T15:29:19.337Z,101311.45
2019-05-11T15:31:48.729Z,101311.80
2019-05-11T15:34:18.688Z,101309.22
2019-05-11T15:37:08.399Z,101311.73
2019-05-11T15:45:42.236Z,101312.42
2019-05-11T15:48:11.678Z,101320.27
2019-05-11T15:51:21.213Z,101310.77
2019-05-11T15:53:50.666Z,101303.23
2019-05-11T15:56:20.241Z,101295.94
2019-05-11T15:58:49.719Z,101304.00
2019-05-11T16:01:19.181Z,101297.17
2019-05-11T16:03:50.141Z,101298.88
2019-05-11T16:09:45.357Z,101299.95
2019-05-11T16:18:50.748Z,101296.81
2019-05-11T16:24:22.670Z,101307.38
2019-05-11T16:27:31.336Z,101305.14
2019-05-11T16:30:00.751Z,101314.55
2019-05-11T16:32:30.260Z,101309.62
2019-05-11T16:35:00.451Z,101314.44
2019-05-11T16:40:25.837Z,101314.14
2019-05-11T16:46:04.844Z,101329.50
2019-05-11T16:48:34.572Z,101326.38
2019-05-11T16:51:04.175Z,101324.48
2019-05-11T16:56:09.304Z,101340.93
2019-05-11T16:58:41.146Z,101323.64
2019-05-11T17:01:10.099Z,101313.64
2019-05-11T17:03:39.724Z,101313.56
2019-05-11T17:06:09.173Z,101316.38
2019-05-11T17:08:38.657Z,101308.15
2019-05-11T17:11:08.429Z,101301.06
2019-05-11T17:13:39.514Z,101299.08
2019-05-11T17:16:09.071Z,101299.62
2019-05-11T17:18:38.422Z,101212.65
2019-05-11T17:21:08.040Z,101307.15
2019-05-11T17:23:38.399Z,101318.41
2019-05-11T17:26:08.895Z,101305.28
2019-05-11T17:29:18.555Z,101301.87
2019-05-11T17:31:49.318Z,101306.05
2019-05-11T17:34:59.099Z,101312.20
2019-05-11T17:40:42.868Z,101311.51
2019-05-11T17:43:51.655Z,101315.84
2019-05-11T17:46:21.403Z,101314.90
2019-05-11T17:48:51.182Z,101314.61
2019-05-11T17:51:24.698Z,101306.67
2019-05-11T17:53:52.781Z,101311.80
2019-05-11T17:56:22.526Z,101317.27
2019-05-11T17:58:52.064Z,101318.52
2019-05-11T18:01:21.670Z,101317.87
2019-05-11T18:07:06.076Z,101316.25
2019-05-11T18:09:37.927Z,101313.23
2019-05-11T18:12:06.901Z,101323.06
2019-05-11T18:14:39.358Z,101319.09
2019-05-11T18:17:29.459Z,101318.83
2019-05-11T18:23:08.362Z,101326.78
2019-05-11T18:25:39.469Z,101328.95
2019-05-11T18:28:09.259Z,101322.60
2019-05-11T18:30:39.061Z,101324.39
2019-05-11T18:33:10.104Z,101321.27
2019-05-11T18:35:39.755Z,101323.05
2019-05-11T18:38:09.278Z,101330.52
2019-05-11T18:40:38.630Z,101320.63
2019-05-11T18:43:08.691Z,101321.95
2019-05-11T18:45:38.549Z,101316.06
2019-05-11T18:48:08.278Z,101313.72
2019-05-11T18:53:48.226Z,101309.84
2019-05-11T18:56:18.177Z,101306.73
2019-05-11T18:58:49.004Z,101304.86
2019-05-11T19:01:18.800Z,101302.22
2019-05-11T19:03:48.231Z,101297.09
2019-05-11T19:06:18.511Z,101295.39
2019-05-11T19:11:44.106Z,101284.34
2019-05-11T19:14:14.202Z,101285.88
2019-05-11T19:16:43.620Z,101280.69
2019-05-11T19:19:13.340Z,101280.40
2019-05-11T19:24:39.031Z,101263.50
2019-05-11T19:27:08.635Z,101255.47
2019-05-11T19:32:34.415Z,101248.31
2019-05-11T19:38:52.013Z,101236.91
2019-05-11T19:47:28.122Z,101234.91
2019-05-11T19:52:59.992Z,101227.66
2019-05-11T19:55:29.538Z,101226.20
2019-05-11T19:58:39.430Z,101226.80
2019-05-11T20:04:18.957Z,101224.03
2019-05-11T20:07:27.905Z,101217.80
2019-05-11T20:10:38.309Z,101209.41
2019-05-11T20:13:08.133Z,101204.88
2019-05-11T20:18:18.216Z,101198.48
2019-05-11T20:24:15.114Z,101187.53
2019-05-11T20:29:40.719Z,101178.95
2019-05-11T20:32:49.631Z,101174.53
2019-05-11T20:35:20.071Z,101166.59
2019-05-11T20:37:49.859Z,101150.06
2019-05-11T20:43:14.869Z,101144.43
2019-05-11T20:45:44.326Z,101131.14
2019-05-11T20:48:13.969Z,101130.89
2019-05-11T20:50:43.464Z,101121.26
2019-05-11T20:53:12.903Z,101119.18
2019-05-11T20:55:42.474Z,101111.16
2019-05-11T21:01:21.586Z,101110.56
2019-05-11T21:04:12.138Z,101108.90
2019-05-11T21:06:41.631Z,101101.05
2019-05-11T21:09:50.563Z,101097.84
2019-05-11T21:15:18.036Z,101095.18
2019-05-11T21:17:48.213Z,101088.83
2019-05-11T21:23:25.350Z,101083.73
2019-05-11T21:25:54.890Z,101075.83
2019-05-11T21:28:24.439Z,101079.02
2019-05-11T21:39:28.756Z,101054.92
2019-05-11T21:45:00.758Z,101055.02
2019-05-11T21:48:09.696Z,101045.01
2019-05-11T21:50:39.194Z,101037.70
2019-05-11T21:53:10.601Z,101037.33
2019-05-11T21:58:41.826Z,101030.22
2019-05-11T22:01:11.757Z,101024.93
2019-05-11T22:03:41.243Z,101025.78
2019-05-11T22:12:10.890Z,101020.77
2019-05-11T22:17:42.575Z,101008.31
2019-05-11T22:20:51.278Z,101012.38
2019-05-11T22:23:21.283Z,101006.42
2019-05-11T22:25:50.835Z,101002.92
2019-05-11T22:29:00.579Z,100998.36
2019-05-11T22:31:30.957Z,100998.64
2019-05-11T22:37:34.760Z,100998.22
2019-05-11T22:43:29.160Z,100985.09
2019-05-11T22:48:52.960Z,100973.58
2019-05-11T22:52:01.819Z,100977.30
2019-05-11T22:54:31.750Z,100970.31
2019-05-11T22:57:01.093Z,100969.36
2019-05-11T22:59:30.551Z,100957.19
2019-05-11T23:02:11.751Z,100960.11
2019-05-11T23:04:41.263Z,100958.28
2019-05-11T23:07:10.781Z,100956.34
2019-05-11T23:09:40.596Z,100951.33
2019-05-11T23:12:10.264Z,100952.42
2019-05-11T23:15:19.132Z,100953.84
2019-05-11T23:17:49.698Z,100944.11
2019-05-11T23:20:58.499Z,100946.05
2019-05-11T23:23:28.416Z,100947.94
2019-05-11T23:25:59.317Z,100941.75
2019-05-11T23:29:08.303Z,100957.23
2019-05-11T23:31:50.558Z,100947.70
2019-05-11T23:37:03.146Z,100941.24
2019-05-11T23:39:32.543Z,100947.42
2019-05-11T23:42:21.340Z,100943.88
2019-05-11T23:47:59.986Z,100941.78
2019-05-11T23:51:08.864Z,100941.63
2019-05-11T23:54:19.147Z,100939.08
2019-05-11T23:56:48.653Z,100935.30
2019-05-11T23:59:58.066Z,100930.72
